Time;durP1;ratioP1;P1;durP2;ratioP2;P2;SDS_P1;SDS_P2;PMS_P1;PMS_P2;Temp;Humidity;BMP_temperature;BMP_pressure;BME280_temperature;BME280_humidity;BME280_pressure;Samples;Min_cycle;Max_cycle;Signal;HPM_P1;HPM_P2
2022/12/20 00:02:16;;;;;;;11.40;6.38;;;18.70;50.70;;;;;;6243499;28;20033;-68
2022/12/20 00:05:17;;;;;;;10.38;6.32;;;18.60;50.60;;;;;;6242157;28;20021;-68
2022/12/20 00:08:18;;;;;;;13.40;7.00;;;18.60;50.60;;;;;;6243644;28;20087;-67
2022/12/20 00:11:18;;;;;;;12.15;6.85;;;18.70;50.70;;;;;;6258463;28;20611;-68
2022/12/20 00:14:19;;;;;;;10.48;6.10;;;18.60;50.70;;;;;;6243206;28;20017;-68
2022/12/20 00:17:20;;;;;;;10.75;6.22;;;18.60;50.60;;;;;;6243489;28;20475;-68
2022/12/20 00:20:21;;;;;;;11.60;6.75;;;18.60;50.70;;;;;;6243551;28;20475;-68
2022/12/20 00:23:22;;;;;;;11.18;6.00;;;18.60;50.60;;;;;;6242952;28;20029;-68
2022/12/20 00:26:27;;;;;;;10.05;6.30;;;18.70;50.70;;;;;;6243054;28;20025;-68
2022/12/20 00:29:27;;;;;;;9.25;5.70;;;18.60;50.60;;;;;;6243344;28;20631;-68
2022/12/20 00:32:28;;;;;;;9.77;5.75;;;18.60;50.70;;;;;;6241576;28;20034;-68
2022/12/20 00:35:29;;;;;;;9.02;5.57;;;18.60;50.70;;;;;;6242841;28;20096;-68
2022/12/20 00:38:30;;;;;;;9.77;5.65;;;18.60;50.70;;;;;;6243216;28;20116;-68
2022/12/20 00:41:33;;;;;;;9.88;6.45;;;18.60;50.60;;;;;;6243069;28;20100;-68
2022/12/20 00:44:33;;;;;;;8.85;5.57;;;18.60;50.70;;;;;;6242984;28;20025;-68
2022/12/20 00:47:34;;;;;;;8.23;5.03;;;18.60;50.70;;;;;;6242685;28;20511;-68
2022/12/20 00:50:34;;;;;;;9.85;5.55;;;18.60;50.60;;;;;;6243086;28;20030;-68
2022/12/20 00:53:36;;;;;;;7.72;4.97;;;18.60;50.70;;;;;;6243174;28;20018;-68
2022/12/20 00:56:37;;;;;;;8.60;5.32;;;18.60;50.70;;;;;;6242793;28;20049;-67
2022/12/20 00:59:38;;;;;;;10.07;5.38;;;18.60;50.60;;;;;;6241525;28;20029;-67
2022/12/20 01:02:38;;;;;;;8.95;4.78;;;18.70;50.70;;;;;;6241485;28;20036;-68
2022/12/20 01:05:39;;;;;;;6.80;4.78;;;18.60;50.70;;;;;;6246880;28;20032;-68
2022/12/20 01:08:40;;;;;;;8.00;5.20;;;18.60;50.60;;;;;;6247629;28;20685;-67
2022/12/20 01:11:40;;;;;;;9.68;5.25;;;18.60;50.70;;;;;;6245932;28;20021;-67
2022/12/20 01:14:41;;;;;;;8.13;4.65;;;18.60;50.70;;;;;;6247114;28;20071;-67
2022/12/20 01:17:42;;;;;;;7.68;4.82;;;18.60;50.70;;;;;;6247295;28;20017;-68
2022/12/20 01:20:43;;;;;;;8.68;5.07;;;18.60;50.70;;;;;;6247181;28;20032;-68
2022/12/20 01:23:43;;;;;;;7.80;4.85;;;18.70;50.70;;;;;;6245702;28;20113;-68
2022/12/20 01:26:44;;;;;;;8.82;5.00;;;18.60;50.60;;;;;;6247103;28;20390;-69
2022/12/20 01:29:45;;;;;;;9.07;4.57;;;18.60;50.70;;;;;;6247488;28;20100;-68
2022/12/20 01:32:46;;;;;;;8.02;4.90;;;18.60;50.70;;;;;;6247089;28;20025;-68
2022/12/20 01:36:06;;;;;;;6.57;4.10;;;18.60;50.70;;;;;;6246554;28;20024;-68
2022/12/20 01:39:13;;;;;;;7.35;4.57;;;18.60;50.70;;;;;;6246745;28;20045;-68
2022/12/20 01:42:14;;;;;;;6.82;4.30;;;18.60;50.70;;;;;;6246786;28;20037;-68
2022/12/20 01:45:27;;;;;;;6.30;4.13;;;18.60;50.70;;;;;;6245233;28;20734;-67
2022/12/20 01:48:27;;;;;;;6.95;4.20;;;18.60;50.70;;;;;;6246323;28;20021;-68
2022/12/20 01:51:30;;;;;;;7.15;4.60;;;18.60;50.70;;;;;;6246493;28;20837;-68
2022/12/20 01:54:33;;;;;;;7.18;4.45;;;18.60;50.70;;;;;;6246173;28;20025;-67
2022/12/20 01:57:41;;;;;;;6.90;4.63;;;18.60;50.70;;;;;;6246003;28;20703;-67
2022/12/20 02:00:41;;;;;;;6.25;3.88;;;18.60;50.70;;;;;;6246316;28;20036;-68
2022/12/20 02:03:44;;;;;;;6.88;4.28;;;18.60;50.70;;;;;;6246302;28;20025;-67
2022/12/20 02:06:44;;;;;;;7.60;4.13;;;18.60;50.70;;;;;;6244753;28;20072;-67
2022/12/20 02:09:46;;;;;;;7.97;4.43;;;18.60;50.60;;;;;;6245954;28;20025;-68
2022/12/20 02:12:49;;;;;;;7.90;4.35;;;18.60;50.70;;;;;;6244713;28;20022;-67
2022/12/20 02:15:56;;;;;;;6.22;4.10;;;18.60;50.70;;;;;;6243969;28;20021;-67
2022/12/20 02:19:39;;;;;;;5.82;3.85;;;18.60;50.60;;;;;;6245750;28;20733;-68
2022/12/20 02:23:05;;;;;;;6.35;4.32;;;18.60;50.70;;;;;;6245651;28;20033;-68
2022/12/20 02:26:27;;;;;;;6.03;3.97;;;18.60;50.70;;;;;;6245568;28;20033;-67
2022/12/20 02:29:46;;;;;;;5.90;3.50;;;18.60;50.60;;;;;;6244102;28;20036;-68
2022/12/20 02:33:01;;;;;;;5.38;3.88;;;18.60;50.70;;;;;;6245317;28;20036;-67
2022/12/20 02:36:03;;;;;;;5.00;3.30;;;18.60;50.60;;;;;;6245396;28;20017;-68
2022/12/20 02:39:03;;;;;;;5.45;3.60;;;18.60;50.70;;;;;;6245109;28;20025;-67
2022/12/20 02:42:08;;;;;;;5.70;3.60;;;18.60;50.70;;;;;;6245565;28;20056;-68
2022/12/20 02:45:16;;;;;;;5.27;3.70;;;18.60;50.70;;;;;;6245487;28;20029;-68
2022/12/20 02:48:18;;;;;;;6.53;3.78;;;18.60;50.70;;;;;;6244565;28;20030;-67
2022/12/20 02:51:22;;;;;;;4.97;3.50;;;18.60;50.70;;;;;;6244952;28;20109;-68
2022/12/20 02:54:24;;;;;;;6.60;3.90;;;18.60;50.70;;;;;;6245029;28;20061;-68
2022/12/20 02:58:10;;;;;;;5.05;3.20;;;18.60;50.70;;;;;;6244679;28;20080;-68
2022/12/20 03:01:20;;;;;;;4.57;3.63;;;18.60;50.70;;;;;;6243667;28;20512;-67
2022/12/20 03:04:27;;;;;;;4.85;3.47;;;18.60;50.70;;;;;;6244620;28;20494;-68
2022/12/20 03:07:28;;;;;;;4.85;3.47;;;18.60;50.70;;;;;;6244202;28;20048;-67
2022/12/20 03:10:29;;;;;;;5.05;3.35;;;18.60;50.70;;;;;;6244503;28;20372;-68
2022/12/20 03:13:29;;;;;;;5.85;3.60;;;18.60;50.70;;;;;;6243380;28;20056;-67
2022/12/20 03:16:30;;;;;;;4.38;3.17;;;18.60;50.70;;;;;;6244605;28;20490;-67
2022/12/20 03:19:31;;;;;;;5.07;3.28;;;18.60;50.70;;;;;;6244573;28;20048;-67
2022/12/20 03:22:33;;;;;;;5.35;3.38;;;18.60;50.70;;;;;;6244268;28;20036;-68
2022/12/20 03:25:33;;;;;;;4.72;3.17;;;18.60;50.70;;;;;;6242792;28;20060;-68
2022/12/20 03:28:34;;;;;;;4.25;3.08;;;18.60;50.70;;;;;;6242925;28;20033;-68
2022/12/20 03:31:35;;;;;;;4.50;3.00;;;18.60;50.80;;;;;;6243105;28;20032;-67
2022/12/20 03:34:36;;;;;;;4.20;2.72;;;18.60;50.70;;;;;;6242686;28;20033;-69
2022/12/20 03:37:37;;;;;;;4.45;3.28;;;18.60;50.70;;;;;;6243847;28;20021;-68
2022/12/20 03:40:38;;;;;;;5.78;3.42;;;18.60;50.70;;;;;;6244006;28;20560;-68
2022/12/20 03:43:38;;;;;;;4.60;2.83;;;18.60;50.70;;;;;;6243795;28;20033;-68
2022/12/20 03:46:39;;;;;;;4.15;2.78;;;18.60;50.70;;;;;;6244026;28;20025;-68
2022/12/20 03:49:40;;;;;;;4.63;3.17;;;18.60;50.70;;;;;;6243564;28;20026;-68
2022/12/20 03:52:41;;;;;;;6.10;3.13;;;18.60;50.80;;;;;;6243916;28;20021;-67
2022/12/20 03:55:41;;;;;;;3.80;2.88;;;18.70;50.80;;;;;;6243846;28;20399;-68
2022/12/20 03:58:42;;;;;;;4.47;2.85;;;18.60;50.70;;;;;;6243424;28;20450;-68
2022/12/20 04:01:42;;;;;;;4.57;2.88;;;18.60;50.70;;;;;;6243602;28;20061;-68
2022/12/20 04:04:43;;;;;;;3.67;2.80;;;18.60;50.70;;;;;;6243946;28;20651;-67
2022/12/20 04:07:44;;;;;;;4.57;2.80;;;18.60;50.70;;;;;;6243254;28;20025;-68
2022/12/20 04:14:04;;;;;;;4.13;2.60;;;18.60;50.70;;;;;;6243143;28;20034;-68
2022/12/20 04:17:05;;;;;;;3.72;2.47;;;18.60;50.80;;;;;;6243432;28;20036;-68
2022/12/20 04:20:18;;;;;;;3.55;2.58;;;18.60;50.80;;;;;;6243106;28;20029;-68
2022/12/20 04:23:19;;;;;;;4.13;2.90;;;18.60;50.80;;;;;;6243104;28;20481;-68
2022/12/20 04:26:20;;;;;;;4.72;2.72;;;18.60;50.80;;;;;;6243610;28;20026;-68
2022/12/20 04:29:21;;;;;;;3.72;2.95;;;18.60;50.80;;;;;;6243283;28;20491;-68
2022/12/20 04:32:21;;;;;;;4.68;2.85;;;18.60;50.80;;;;;;6243375;28;20071;-68
2022/12/20 04:35:22;;;;;;;3.28;2.63;;;18.60;50.70;;;;;;6243078;28;20024;-68
2022/12/20 04:38:23;;;;;;;4.25;2.92;;;18.60;50.80;;;;;;6244126;28;20057;-68
2022/12/20 04:41:25;;;;;;;3.92;2.40;;;18.60;50.80;;;;;;6246811;28;20025;-68
2022/12/20 04:44:26;;;;;;;5.57;3.13;;;18.60;50.70;;;;;;6247384;28;20068;-67
2022/12/20 04:47:27;;;;;;;3.08;2.40;;;18.60;50.80;;;;;;6247970;28;20096;-67
2022/12/20 04:50:27;;;;;;;3.65;2.63;;;18.60;50.70;;;;;;6248087;28;20024;-67
2022/12/20 04:53:46;;;;;;;2.95;2.28;;;18.60;50.80;;;;;;6247608;28;20508;-68
2022/12/20 04:56:47;;;;;;;3.85;2.33;;;18.60;50.80;;;;;;6247625;28;20041;-67
2022/12/20 05:00:35;;;;;;;3.42;2.15;;;18.60;50.80;;;;;;6247844;28;20029;-68
2022/12/20 05:03:36;;;;;;;3.88;2.67;;;18.60;50.80;;;;;;6247778;28;20170;-68
2022/12/20 05:06:36;;;;;;;3.17;2.47;;;18.60;50.80;;;;;;6246184;28;20029;-67
2022/12/20 05:09:37;;;;;;;3.67;2.55;;;18.60;50.80;;;;;;6247681;28;20039;-68
2022/12/20 05:12:38;;;;;;;3.17;2.17;;;18.60;50.70;;;;;;6246877;28;20021;-67
2022/12/20 05:15:38;;;;;;;3.47;2.40;;;18.60;50.80;;;;;;6247267;28;20478;-68
2022/12/20 05:18:39;;;;;;;2.97;2.10;;;18.60;51.50;;;;;;6247272;28;20616;-68
2022/12/20 05:28:18;;;;;;;2.60;2.10;;;18.60;50.80;;;;;;6247612;28;20053;-68
2022/12/20 05:31:19;;;;;;;3.83;2.50;;;18.60;50.70;;;;;;6245437;28;20032;-67
2022/12/20 05:34:20;;;;;;;3.60;2.38;;;18.60;50.80;;;;;;6246856;28;20063;-68
2022/12/20 05:37:21;;;;;;;3.50;2.33;;;18.60;50.70;;;;;;6246714;28;20209;-68
2022/12/20 05:40:21;;;;;;;3.95;2.40;;;18.60;50.80;;;;;;6246892;28;20104;-68
2022/12/20 05:43:22;;;;;;;3.20;2.28;;;18.60;50.80;;;;;;6246610;28;20029;-67
2022/12/20 05:46:23;;;;;;;3.30;2.30;;;18.60;50.90;;;;;;6246222;28;20410;-68
2022/12/20 05:49:24;;;;;;;3.67;2.40;;;18.60;50.70;;;;;;6246314;28;20025;-68
2022/12/20 05:52:25;;;;;;;2.88;2.25;;;18.60;50.70;;;;;;6244209;28;20110;-68
2022/12/20 05:55:25;;;;;;;2.83;2.08;;;18.60;50.80;;;;;;6245168;28;20502;-68
2022/12/20 05:58:27;;;;;;;3.28;1.98;;;18.60;50.70;;;;;;6246386;28;20021;-68
2022/12/20 06:01:28;;;;;;;3.25;2.22;;;18.60;50.80;;;;;;6245992;28;20594;-68
2022/12/20 06:04:31;;;;;;;3.00;2.03;;;18.60;50.80;;;;;;6245813;28;20041;-68
2022/12/20 06:07:32;;;;;;;2.00;1.80;;;18.60;50.80;;;;;;6246071;28;20026;-68
2022/12/20 06:10:33;;;;;;;2.53;1.90;;;18.60;50.70;;;;;;6246074;28;20123;-68
2022/12/20 06:13:34;;;;;;;2.90;2.38;;;18.60;50.70;;;;;;6244734;28;20022;-68
2022/12/20 06:16:35;;;;;;;2.60;1.95;;;18.60;50.80;;;;;;6246225;28;20029;-68
2022/12/20 06:19:36;;;;;;;3.28;2.15;;;18.60;50.80;;;;;;6246060;28;20028;-68
2022/12/20 06:22:37;;;;;;;3.17;2.25;;;18.60;50.70;;;;;;6245399;28;20490;-68
2022/12/20 06:25:38;;;;;;;3.05;2.20;;;18.60;50.80;;;;;;6245473;28;20028;-68
2022/12/20 06:28:41;;;;;;;3.05;2.10;;;18.60;50.80;;;;;;6246106;28;20026;-68
2022/12/20 06:31:42;;;;;;;2.88;2.17;;;18.60;50.70;;;;;;6240405;28;20026;-69
2022/12/20 06:34:43;;;;;;;3.70;1.90;;;18.60;50.80;;;;;;6240918;28;20071;-69
2022/12/20 06:37:44;;;;;;;3.63;2.05;;;18.60;50.80;;;;;;6254385;28;20021;-68
2022/12/20 06:40:44;;;;;;;2.95;2.00;;;18.60;50.70;;;;;;6245515;28;20032;-69
2022/12/20 06:43:45;;;;;;;4.03;2.53;;;18.60;50.80;;;;;;6249961;28;20056;-69
2022/12/20 06:46:46;;;;;;;4.00;2.40;;;18.70;50.80;;;;;;6244033;28;20033;-69
2022/12/20 06:49:47;;;;;;;2.40;1.98;;;18.70;50.90;;;;;;6243247;28;20022;-69
2022/12/20 06:52:47;;;;;;;5.78;2.05;;;18.70;50.80;;;;;;6244457;28;20049;-69
2022/12/20 06:55:50;;;;;;;5.88;2.10;;;18.70;50.90;;;;;;6244309;28;20041;-68
2022/12/20 06:58:51;;;;;;;3.25;2.10;;;18.70;50.90;;;;;;6266850;28;20156;-69
2022/12/20 07:01:52;;;;;;;3.88;2.10;;;18.70;50.90;;;;;;6245164;28;20482;-69
2022/12/20 07:04:53;;;;;;;3.78;1.88;;;18.70;50.90;;;;;;6239704;28;20096;-69
2022/12/20 07:07:53;;;;;;;3.28;2.38;;;18.70;50.90;;;;;;6246683;28;20035;-69
2022/12/20 07:10:55;;;;;;;3.97;2.20;;;18.70;51.00;;;;;;6258746;28;20022;-71
2022/12/20 07:13:57;;;;;;;3.10;2.15;;;18.60;50.90;;;;;;6251823;28;20038;-69
2022/12/20 07:16:57;;;;;;;4.82;2.22;;;18.60;50.90;;;;;;6287213;28;20025;-68
2022/12/20 07:19:58;;;;;;;2.35;1.80;;;18.60;50.90;;;;;;6271027;28;20044;-68
2022/12/20 07:22:59;;;;;;;3.67;2.30;;;18.60;50.90;;;;;;6286385;28;20032;-68
2022/12/20 07:26:02;;;;;;;2.38;1.67;;;18.60;50.90;;;;;;6232600;28;20103;-69
2022/12/20 07:29:05;;;;;;;3.67;1.98;;;18.60;50.90;;;;;;6225979;28;20032;-70
2022/12/20 07:32:05;;;;;;;3.67;2.17;;;18.70;51.00;;;;;;6245879;28;20026;-70
2022/12/20 07:35:07;;;;;;;3.13;2.10;;;18.70;50.80;;;;;;6258773;28;20390;-69
2022/12/20 07:38:07;;;;;;;2.78;1.67;;;18.70;50.70;;;;;;6253977;28;20544;-69
2022/12/20 07:41:08;;;;;;;3.50;1.90;;;18.80;50.70;;;;;;6245568;28;20021;-69
2022/12/20 07:44:09;;;;;;;3.42;2.20;;;18.80;50.70;;;;;;6248305;28;20047;-69
2022/12/20 07:47:09;;;;;;;3.40;2.20;;;18.80;50.70;;;;;;6232000;28;20494;-69
2022/12/20 07:50:10;;;;;;;3.13;2.00;;;18.80;50.80;;;;;;6232083;28;20033;-69
2022/12/20 07:53:11;;;;;;;6.50;1.88;;;18.80;50.90;;;;;;6239247;28;20096;-69
2022/12/20 07:56:13;;;;;;;5.13;1.83;;;18.80;51.10;;;;;;6243887;28;20052;-69
2022/12/20 07:59:20;;;;;;;2.45;1.77;;;18.80;50.90;;;;;;6246033;28;20018;-70
2022/12/20 08:02:26;;;;;;;4.88;2.40;;;18.70;50.90;;;;;;6244271;28;20036;-69
2022/12/20 08:05:27;;;;;;;5.10;1.90;;;18.70;51.00;;;;;;6244688;28;20064;-70
2022/12/20 08:08:34;;;;;;;2.35;1.77;;;18.70;51.10;;;;;;6245533;28;20014;-70
2022/12/20 08:11:36;;;;;;;2.50;1.70;;;18.70;51.00;;;;;;6244323;28;20026;-69
2022/12/20 08:14:37;;;;;;;3.15;1.80;;;18.70;51.10;;;;;;6244642;28;20055;-69
2022/12/20 08:17:37;;;;;;;4.95;2.10;;;18.70;51.10;;;;;;6245267;28;20021;-69
2022/12/20 08:20:38;;;;;;;2.50;1.90;;;18.70;51.10;;;;;;6245071;28;20033;-70
2022/12/20 08:23:40;;;;;;;5.65;1.80;;;18.70;51.20;;;;;;6243628;28;20025;-69
2022/12/20 08:26:41;;;;;;;3.38;1.88;;;18.70;51.20;;;;;;6237233;28;20033;-69
2022/12/20 08:29:42;;;;;;;2.80;1.80;;;18.70;51.20;;;;;;6239696;28;20468;-70
2022/12/20 08:32:43;;;;;;;2.15;1.73;;;18.70;51.10;;;;;;6255635;28;20039;-69
2022/12/20 08:35:43;;;;;;;3.50;1.80;;;18.70;51.20;;;;;;6245733;28;20018;-69
2022/12/20 08:38:44;;;;;;;2.05;1.52;;;18.70;51.20;;;;;;6264598;28;20090;-70
2022/12/20 08:41:45;;;;;;;1.80;1.50;;;18.70;51.20;;;;;;6252713;28;20124;-70
2022/12/20 08:44:46;;;;;;;3.33;2.13;;;18.70;51.20;;;;;;6244413;28;20036;-70
2022/12/20 08:47:47;;;;;;;3.30;1.83;;;18.70;51.20;;;;;;6244542;28;20044;-69
2022/12/20 08:50:52;;;;;;;2.20;1.60;;;18.70;51.20;;;;;;6242116;28;20398;-70
2022/12/20 08:53:53;;;;;;;3.22;1.80;;;18.70;51.20;;;;;;6220060;28;20030;-71
2022/12/20 08:56:54;;;;;;;2.05;1.60;;;18.70;51.20;;;;;;6239399;28;20049;-71
2022/12/20 08:59:54;;;;;;;3.80;1.70;;;18.70;51.20;;;;;;6242962;28;20036;-68
2022/12/20 09:02:55;;;;;;;2.83;2.00;;;18.70;51.30;;;;;;6258422;28;20053;-69
2022/12/20 09:05:57;;;;;;;3.28;1.80;;;18.70;51.30;;;;;;6249080;28;20060;-68
2022/12/20 09:08:59;;;;;;;2.55;1.67;;;18.70;51.30;;;;;;6253460;28;20034;-68
2022/12/20 09:12:00;;;;;;;6.63;2.30;;;18.70;51.30;;;;;;6243377;28;20021;-69
2022/12/20 09:15:01;;;;;;;5.55;1.85;;;18.70;51.40;;;;;;6243107;28;20064;-68
2022/12/20 09:18:02;;;;;;;2.33;1.90;;;18.70;51.40;;;;;;6243748;28;20657;-68
2022/12/20 09:21:04;;;;;;;1.70;1.50;;;18.70;51.40;;;;;;6243638;28;20100;-68
2022/12/20 09:24:06;;;;;;;7.72;1.77;;;18.70;51.40;;;;;;6244004;28;20033;-68
2022/12/20 09:27:06;;;;;;;3.83;1.77;;;18.70;51.40;;;;;;6252616;28;20081;-68
2022/12/20 09:30:08;;;;;;;9.27;2.08;;;18.70;51.50;;;;;;6247362;28;20075;-68
2022/12/20 09:33:08;;;;;;;2.95;1.73;;;18.70;51.40;;;;;;6264448;28;20117;-69
2022/12/20 09:36:20;;;;;;;5.63;1.65;;;18.70;51.50;;;;;;6246618;28;20026;-68
2022/12/20 09:39:20;;;;;;;6.93;1.90;;;18.70;51.50;;;;;;6247776;28;20017;-69
2022/12/20 09:42:24;;;;;;;3.95;1.83;;;18.70;51.50;;;;;;6246725;28;20046;-68
2022/12/20 09:45:32;;;;;;;4.32;1.63;;;18.70;51.50;;;;;;6247906;28;20091;-68
2022/12/20 09:48:37;;;;;;;4.60;1.60;;;18.70;51.50;;;;;;6264835;28;20020;-66
2022/12/20 09:52:03;;;;;;;6.65;1.90;;;18.70;51.50;;;;;;6253583;28;20029;-68
2022/12/20 09:55:34;;;;;;;8.00;1.75;;;18.70;51.60;;;;;;6247427;28;20030;-68
2022/12/20 09:58:41;;;;;;;5.18;1.60;;;18.70;51.50;;;;;;6267196;28;20080;-68
2022/12/20 10:01:47;;;;;;;6.57;1.70;;;18.70;51.60;;;;;;6267212;28;20065;-68
2022/12/20 10:04:48;;;;;;;2.45;1.60;;;18.70;51.50;;;;;;6246375;28;20018;-68
2022/12/20 10:08:05;;;;;;;5.07;2.17;;;18.70;51.60;;;;;;6260409;28;20028;-68
2022/12/20 10:11:44;;;;;;;3.40;1.92;;;18.70;51.60;;;;;;6247975;28;20032;-69
2022/12/20 10:14:51;;;;;;;4.50;2.00;;;18.70;51.60;;;;;;6234211;28;20053;-68
2022/12/20 10:18:03;;;;;;;7.97;1.80;;;18.70;51.60;;;;;;6247193;28;20378;-68
2022/12/20 10:21:24;;;;;;;3.70;1.83;;;18.70;51.60;;;;;;6247187;28;20025;-68
2022/12/20 10:24:30;;;;;;;2.65;1.90;;;18.70;51.70;;;;;;6262184;28;20018;-67
2022/12/20 10:27:36;;;;;;;3.03;1.90;;;18.70;51.70;;;;;;6246745;28;20029;-67
2022/12/20 10:30:37;;;;;;;2.60;1.63;;;18.70;51.70;;;;;;6247100;28;20022;-68
2022/12/20 10:33:38;;;;;;;4.20;1.73;;;18.70;51.70;;;;;;6261346;28;20021;-68
2022/12/20 10:36:39;;;;;;;4.40;1.90;;;18.70;51.70;;;;;;6246548;28;20063;-68
2022/12/20 10:39:42;;;;;;;3.80;1.85;;;18.70;51.70;;;;;;6246581;28;20438;-69
2022/12/20 10:42:43;;;;;;;4.95;1.73;;;18.70;51.70;;;;;;6246843;28;20498;-71
2022/12/20 10:45:56;;;;;;;4.95;1.92;;;18.70;51.70;;;;;;6245241;28;20030;-68
2022/12/20 10:48:57;;;;;;;4.78;1.92;;;18.70;51.70;;;;;;6257842;28;20033;-68
2022/12/20 10:52:01;;;;;;;3.33;1.85;;;18.70;51.70;;;;;;6234970;28;20101;-67
2022/12/20 10:55:01;;;;;;;7.88;2.38;;;18.70;51.70;;;;;;6236830;28;20104;-67
2022/12/20 10:58:05;;;;;;;2.78;1.67;;;18.70;51.70;;;;;;6246569;28;20048;-68
2022/12/20 11:01:14;;;;;;;4.15;2.47;;;18.70;51.70;;;;;;6246723;28;20028;-67
2022/12/20 11:04:29;;;;;;;6.43;2.47;;;18.70;51.70;;;;;;6246291;28;20033;-68
2022/12/20 11:07:32;;;;;;;6.40;2.55;;;18.70;51.80;;;;;;6246304;28;20021;-68
2022/12/20 11:10:33;;;;;;;3.65;1.80;;;18.70;51.80;;;;;;6246092;28;20032;-68
2022/12/20 11:13:34;;;;;;;3.90;2.03;;;18.70;51.80;;;;;;6256715;28;20021;-68
2022/12/20 11:16:38;;;;;;;3.97;1.77;;;18.70;51.80;;;;;;6252671;28;20212;-68
2022/12/20 11:20:08;;;;;;;2.75;1.73;;;18.70;51.80;;;;;;6245835;28;20025;-68
2022/12/20 11:23:14;;;;;;;4.45;2.20;;;18.70;51.80;;;;;;6246087;28;20039;-68
2022/12/20 11:26:34;;;;;;;3.40;1.90;;;18.70;51.80;;;;;;6246175;28;20029;-68
2022/12/20 11:30:04;;;;;;;8.27;1.85;;;18.70;51.60;;;;;;6263018;28;20025;-68
2022/12/20 11:33:30;;;;;;;11.57;1.95;;;18.80;51.60;;;;;;6264881;28;20102;-69
2022/12/20 11:36:58;;;;;;;5.63;2.20;;;18.80;51.60;;;;;;6235856;28;20099;-69
2022/12/20 11:40:05;;;;;;;5.20;2.10;;;18.80;51.70;;;;;;6239592;28;20097;-69
2022/12/20 11:43:24;;;;;;;4.32;1.98;;;18.80;51.70;;;;;;6241411;28;20045;-69
2022/12/20 11:46:25;;;;;;;7.25;2.22;;;18.70;51.70;;;;;;6236694;28;20037;-68
2022/12/20 11:49:53;;;;;;;4.43;2.08;;;18.70;51.70;;;;;;6239947;28;20495;-67
2022/12/20 11:53:01;;;;;;;5.00;2.20;;;18.70;51.70;;;;;;6242408;28;20025;-69
2022/12/20 11:56:08;;;;;;;5.55;2.10;;;18.80;51.80;;;;;;6260129;28;20033;-69
2022/12/20 11:59:21;;;;;;;3.67;2.30;;;18.70;51.70;;;;;;6244924;28;20063;-68
2022/12/20 12:02:42;;;;;;;4.60;2.00;;;18.80;52.40;;;;;;6245738;28;20026;-68
2022/12/20 12:05:52;;;;;;;3.78;2.22;;;18.80;51.80;;;;;;6244656;28;20039;-68
2022/12/20 12:09:06;;;;;;;3.85;2.15;;;18.80;51.70;;;;;;6244821;28;20100;-68
2022/12/20 12:12:30;;;;;;;5.20;2.30;;;18.80;51.70;;;;;;6245137;28;20029;-69
2022/12/20 12:15:45;;;;;;;3.63;2.15;;;18.80;51.80;;;;;;6242791;28;20051;-69
2022/12/20 12:18:46;;;;;;;2.63;1.63;;;18.80;51.80;;;;;;6244622;28;20025;-69
2022/12/20 12:21:55;;;;;;;3.53;1.85;;;18.80;52.10;;;;;;6244471;28;20500;-69
2022/12/20 12:25:00;;;;;;;4.38;1.83;;;18.80;51.80;;;;;;6244561;28;20061;-69
2022/12/20 12:28:02;;;;;;;5.72;2.00;;;18.80;51.80;;;;;;6244928;28;20487;-68
2022/12/20 12:31:09;;;;;;;3.88;2.15;;;18.80;51.80;;;;;;6245020;28;20430;-68
2022/12/20 12:34:36;;;;;;;4.10;1.90;;;18.80;51.80;;;;;;6244695;28;20425;-67
2022/12/20 12:38:13;;;;;;;4.15;2.10;;;18.80;51.80;;;;;;6240584;28;20372;-69
2022/12/20 12:41:14;;;;;;;6.72;2.05;;;18.80;51.80;;;;;;6236380;28;20025;-68
2022/12/20 12:44:17;;;;;;;5.50;2.13;;;18.80;51.80;;;;;;6243014;28;20029;-69
2022/12/20 12:47:31;;;;;;;7.10;2.35;;;18.80;51.90;;;;;;6244819;28;20029;-67
2022/12/20 12:50:38;;;;;;;2.85;1.92;;;18.80;51.80;;;;;;6244510;28;20029;-69
2022/12/20 12:53:49;;;;;;;5.80;2.03;;;18.80;51.90;;;;;;6244458;28;20039;-70
2022/12/20 12:56:54;;;;;;;6.32;2.00;;;18.80;51.80;;;;;;6244943;28;20354;-69
2022/12/20 12:59:55;;;;;;;4.32;1.98;;;18.80;51.80;;;;;;6246104;28;20542;-69
2022/12/20 13:02:56;;;;;;;4.95;2.03;;;18.80;51.70;;;;;;6249273;28;20030;-69
2022/12/20 13:05:57;;;;;;;3.50;2.10;;;18.80;51.80;;;;;;6249459;28;20483;-69
2022/12/20 13:08:57;;;;;;;8.55;2.38;;;18.80;51.80;;;;;;6248782;28;20036;-69
2022/12/20 13:11:58;;;;;;;4.93;2.05;;;18.80;51.80;;;;;;6250106;28;20025;-69
2022/12/20 13:14:59;;;;;;;4.07;2.45;;;18.80;51.80;;;;;;6247746;28;20029;-69
2022/12/20 13:18:15;;;;;;;5.60;3.10;;;18.80;51.80;;;;;;6247547;28;20018;-71
2022/12/20 13:21:31;;;;;;;4.80;2.92;;;18.80;51.80;;;;;;6248098;28;20497;-69
2022/12/20 13:24:37;;;;;;;6.15;3.20;;;18.80;51.90;;;;;;6248482;28;20071;-69
2022/12/20 13:27:39;;;;;;;5.65;3.35;;;18.80;51.90;;;;;;6248339;28;20013;-69
2022/12/20 13:30:40;;;;;;;6.22;3.30;;;18.80;51.80;;;;;;6246986;28;20034;-69
2022/12/20 13:33:48;;;;;;;6.38;3.00;;;18.80;51.90;;;;;;6248466;28;20514;-69
2022/12/20 13:36:58;;;;;;;4.63;3.40;;;18.80;51.20;;;;;;6247836;28;20387;-69
2022/12/20 13:40:00;;;;;;;5.20;3.38;;;18.80;51.80;;;;;;6248007;28;20022;-69
2022/12/20 13:43:18;;;;;;;6.80;4.45;;;18.80;51.80;;;;;;6248170;28;20164;-69
2022/12/20 13:46:42;;;;;;;4.22;3.33;;;18.80;51.90;;;;;;6246415;28;20064;-69
2022/12/20 13:49:43;;;;;;;4.05;2.75;;;18.80;51.90;;;;;;6247804;28;20056;-69
2022/12/20 13:52:44;;;;;;;6.10;3.55;;;18.80;51.90;;;;;;6240934;28;20487;-69
2022/12/20 13:55:45;;;;;;;4.78;3.30;;;18.80;51.90;;;;;;6247307;28;20053;-69
2022/12/20 13:58:46;;;;;;;5.82;3.35;;;18.80;51.90;;;;;;6243702;28;20505;-69
2022/12/20 14:01:57;;;;;;;5.82;4.07;;;18.80;51.90;;;;;;6247482;28;20028;-68
2022/12/20 14:05:01;;;;;;;4.57;3.40;;;18.80;51.90;;;;;;6247607;28;20105;-69
2022/12/20 14:08:23;;;;;;;4.30;3.20;;;18.80;51.90;;;;;;6247169;28;20018;-71
2022/12/20 14:11:25;;;;;;;5.13;3.65;;;18.80;51.90;;;;;;6243859;28;20030;-69
2022/12/20 14:14:26;;;;;;;4.28;2.67;;;18.80;51.90;;;;;;6241117;28;20034;-69
2022/12/20 14:17:31;;;;;;;4.28;3.00;;;18.80;51.90;;;;;;6245872;28;20407;-69
2022/12/20 14:20:35;;;;;;;4.20;3.15;;;18.80;51.90;;;;;;6245784;28;20032;-69
2022/12/20 14:23:40;;;;;;;4.20;3.47;;;18.80;51.90;;;;;;6245548;28;20494;-69
2022/12/20 14:26:50;;;;;;;4.00;3.28;;;18.80;51.90;;;;;;6251290;28;20032;-69
2022/12/20 14:29:51;;;;;;;4.47;3.22;;;18.80;51.90;;;;;;6269806;28;20036;-69
2022/12/20 14:32:51;;;;;;;6.35;3.95;;;18.90;51.90;;;;;;6245261;28;20112;-69
2022/12/20 14:35:52;;;;;;;8.57;4.25;;;18.80;51.80;;;;;;6244714;28;20386;-69
2022/12/20 14:38:53;;;;;;;5.70;3.85;;;18.80;51.80;;;;;;6245754;28;20064;-69
2022/12/20 14:42:12;;;;;;;7.03;3.75;;;18.90;51.90;;;;;;6245715;28;20052;-69
2022/12/20 14:45:17;;;;;;;6.55;3.90;;;18.80;51.80;;;;;;6260738;28;20040;-69
2022/12/20 14:48:18;;;;;;;8.45;4.72;;;18.80;51.90;;;;;;6245672;28;20036;-69
2022/12/20 14:51:20;;;;;;;9.80;4.85;;;18.80;51.90;;;;;;6245200;28;20034;-69
2022/12/20 14:54:27;;;;;;;9.80;4.65;;;18.80;51.90;;;;;;6245328;28;20722;-69
2022/12/20 14:57:36;;;;;;;8.57;4.28;;;18.80;51.90;;;;;;6245144;28;20081;-69
2022/12/20 15:00:37;;;;;;;6.63;4.43;;;18.80;51.90;;;;;;6246050;28;20045;-69
2022/12/20 15:03:48;;;;;;;8.02;4.63;;;18.80;51.90;;;;;;6244413;28;20026;-69
2022/12/20 15:06:51;;;;;;;7.57;4.35;;;18.80;51.90;;;;;;6245211;28;20029;-69
2022/12/20 15:09:52;;;;;;;10.02;4.38;;;18.80;51.90;;;;;;6243916;28;20438;-69
2022/12/20 15:12:53;;;;;;;8.23;4.25;;;18.80;51.90;;;;;;6235228;28;20033;-69
2022/12/20 15:15:54;;;;;;;9.38;4.65;;;18.80;51.90;;;;;;6252387;28;20025;-69
2022/12/20 15:18:57;;;;;;;7.20;4.13;;;18.80;51.90;;;;;;6244936;28;20021;-69
2022/12/20 15:21:58;;;;;;;7.60;4.30;;;18.80;52.00;;;;;;6246333;28;20363;-68
2022/12/20 15:24:59;;;;;;;9.73;4.50;;;18.80;51.90;;;;;;6258054;28;20053;-68
2022/12/20 15:28:00;;;;;;;8.45;3.95;;;18.90;52.00;;;;;;6238635;28;20043;-68
2022/12/20 15:31:03;;;;;;;8.05;4.22;;;18.90;51.90;;;;;;6244561;28;20383;-67
2022/12/20 15:34:21;;;;;;;5.30;3.50;;;18.90;51.90;;;;;;6244295;28;20501;-68
2022/12/20 15:37:22;;;;;;;6.38;3.92;;;18.90;52.00;;;;;;6244568;28;20092;-70
2022/12/20 15:40:23;;;;;;;9.32;4.15;;;18.90;52.00;;;;;;6244683;28;20025;-72
2022/12/20 15:43:24;;;;;;;9.10;3.95;;;18.90;51.90;;;;;;6243968;28;20025;-68
2022/12/20 15:46:25;;;;;;;8.30;3.90;;;18.90;51.90;;;;;;6245049;28;20025;-76
2022/12/20 15:49:29;;;;;;;10.43;4.47;;;18.90;51.90;;;;;;6325399;22;20140;-74
2022/12/20 15:52:31;;;;;;;7.53;3.83;;;18.90;52.00;;;;;;6219651;28;20033;-74
2022/12/20 15:55:32;;;;;;;8.13;4.63;;;18.80;51.90;;;;;;6238560;28;20026;-74
2022/12/20 15:58:32;;;;;;;6.95;3.90;;;18.80;51.90;;;;;;6240657;28;20490;-74
2022/12/20 16:01:36;;;;;;;6.90;4.18;;;18.90;52.00;;;;;;6230416;28;20077;-74
2022/12/20 16:04:37;;;;;;;6.57;4.18;;;18.80;51.90;;;;;;6242708;28;20369;-74
2022/12/20 16:07:37;;;;;;;8.98;4.15;;;18.80;51.90;;;;;;6238013;28;20025;-74
2022/12/20 16:10:38;;;;;;;9.70;4.60;;;18.80;51.90;;;;;;6233961;28;20100;-74